Terminal Aerodrome Forecast
Issued by NWS

Home | Current Version | Previous Version | Text Only | Print | Product List | Glossary On
Versions: 1 2 3 4 5 6 7 8 9 10 11 12 13
000
FTUS45 KVEF 291100
TAFEED
TAF
KEED 291125Z 2912/3012 VRB05KT P6SM SKC
     FM292200 21007KT P6SM SKC
     FM300300 25009KT P6SM SKC=

USA.gov is the U.S. government's official web portal to all federal, state and local government web resources and services.